Alread, Arkansas
Current Conditions -  °F | °C
As of 12:15 PM on Thursday 27 Nov 2014 (Local Time) from KCCA Reporting Station
Clear Clear  
Wind Chill: 45°   Ceiling: Unl
Heat Index: 45°   Visibility: 9mi
Dew Point: 27°   Wind: 0mph
Humidity: 49%   Direction: NA
Pressure: 30.51"   Gusts: NA
Location:  35.6269°N, 92.5508°W
Report Text: KCCA 271815Z AUTO 00000KT 9SM CLR 07/M03 A3051 RMK AO2
Loading
Personal Weather Stations






























Interactive Weather Map New forecast layout! Learn more

10-Day Weather Forecast

Advertisements
Track Severe Weather on mobile